Dati Storici

Data ora Umidita' aria (%) Temperatura aria (°C) Rad globale (W/m²) Gonioanemometro (°) Tacoanemometro (m/s) Pioggia (mm)
10-10-2012 06:40 83.1 % 14.665 4.269 34.742 1.029 0
10-10-2012 06:30 82.9 % 14.618 4.217 17.909 1.723 0
10-10-2012 06:20 82.5 % 14.64 4 43.886 0.492 0
10-10-2012 06:10 81.9 % 14.678 4.217 30.506 1.399 0
10-10-2012 06:00 81.3 % 14.863 4.128 30.255 1.214 0
10-10-2012 05:50 81 % 14.877 4.115 25.687 1.883 0
10-10-2012 05:40 81.2 % 14.91 3.961 7.265 1.117 0
10-10-2012 05:30 80.9 % 14.876 3.705 29.715 1.893 0
10-10-2012 05:20 80.7 % 14.917 3.551 14.436 1.715 0
10-10-2012 05:10 79.8 % 14.93 3.476 35.772 2.257 0
10-10-2012 05:00 78.9 % 15.015 3.86 20.057 1.345 0
10-10-2012 04:50 77.8 % 15.082 3.54 35.277 0.647 0
10-10-2012 04:40 77.4 % 15.145 3.297 40.246 0.885 0
10-10-2012 04:30 77.1 % 15.252 3.374 81.494 0.544 0
10-10-2012 04:20 77.4 % 15.235 3.553 0.942 0.67 0
10-10-2012 04:10 77.8 % 15.185 3.771 84.55 0.772 0
10-10-2012 04:00 77.4 % 15.226 3.899 109.137 0.901 0
10-10-2012 03:50 77.4 % 15.205 3.912 112.49 0.457 0
10-10-2012 03:40 78.1 % 15.205 3.925 74.296 0.753 0
10-10-2012 03:30 78.4 % 15.175 4.014 2.64 0.788 0

I dati sono presentati in modo automatico a scopo informativo. In seguito a verifica i dati possono subire modifiche o essere invalidati e non riportati negli archivi definitivi.